Messages of N7QME-2 - map view · info · telemetry · weather · raw · status · beacons · messages · bulletins · browse · moving · my account
Callsign:
Show:

Loading message packets...

APRS messages are stored for 14 days. It is possible to search using wildcards (*?) after a prefix.

2019-06-18 15:55:13 EDT: N7QME-2>N7QME: temps 69.0 70.7 74.5 69.4 65.9 64.7 67.8 64.6
2019-06-18 16:13:28 EDT: N7QME-2>N7QME: hum 54 54 49 55 63 67 62 63
2019-06-18 16:32:28 EDT: N7QME-2>N7QME: dew 51.0 54.8 56.0 52.9 52.6 52.6 54.9 51.5
2019-06-18 16:50:08 EDT: N7QME-2>N7QME: temps 67.2 71.7 74.8 69.5 65.9 64.8 69.1 64.8
2019-06-18 17:28:31 EDT: N7QME-2>N7QME: 13.40 78.3 38 15
2019-06-18 17:36:01 EDT: N7QME-2>N7QME: 13.36 81.3 36 14
2019-06-18 17:59:58 EDT: N7QME-2>N7QME: hum 57 53 48 54 62 66 59 62
2019-06-18 18:19:13 EDT: N7QME-2>N7QME: dew 52.8 56.2 57.3 53.8 52.4 52.9 56.4 51.6
2019-06-18 18:36:30 EDT: N7QME-2>N7QME: temps 68.9 73.3 76.1 70.7 66.1 65.1 71.7 65.4
2019-06-18 18:46:59 EDT: N7QME-2>N7QME: 13.29 78.3 37 14
2019-06-18 18:55:48 EDT: N7QME-2>N7QME: hum 56 52 48 54 63 66 59 62
2019-06-18 19:13:28 EDT: N7QME-2>N7QME: dew 53.4 56.0 56.7 54.2 52.9 52.7 57.9 51.8
2019-06-18 19:29:58 EDT: N7QME-2>N7QME: temps 69.3 73.3 76.4 71.1 66.3 65.4 73.0 65.5
2019-06-18 20:24:18 EDT: N7QME-2>N7QME: temps 69.6 73.1 80.9 71.7 66.4 65.6 73.5 65.7
2019-06-18 20:40:28 EDT: N7QME-2>N7QME: hum 55 51 43 52 62 65 57 62
2019-06-18 21:00:02 EDT: N7QME-2>N7QME: dew 53.6 55.2 57.8 54.4 52.7 53.1 57.7 52.0
2019-06-18 21:19:03 EDT: N7QME-2>N7QME: temps 69.9 72.6 78.0 71.7 66.5 65.8 72.9 65.8
2019-06-18 21:37:48 EDT: N7QME-2>N7QME: hum 54 51 44 52 62 65 57 62
2019-06-18 21:55:28 EDT: N7QME-2>N7QME: dew 52.6 54.2 56.3 53.9 52.8 53.3 57.0 52.2
2019-06-18 22:10:27 EDT: N7QME-2>N7QME: 13.10 72.1 41 15
2019-06-18 22:14:55 EDT: N7QME-2>N7QME: temps 68.9 71.9 75.0 70.8 66.6 66.0 72.3 65.9
2019-06-18 22:48:58 EDT: N7QME-2>N7QME: dew 53.3 53.6 53.4 52.6 52.9 53.4 56.5 52.3
2019-06-18 23:22:47 EDT: N7QME-2>N7QME: hum 53 51 48 51 62 65 56 62
2019-06-18 23:58:12 EDT: N7QME-2>N7QME: temps 70.0 70.7 65.4 69.6 66.6 66.1 70.6 66.0
2019-06-19 00:16:18 EDT: N7QME-2>N7QME: hum 54 51 52 52 61 64 56 62
2019-06-19 00:35:48 EDT: N7QME-2>N7QME: dew 52.4 52.3 46.2 51.6 52.5 52.7 54.0 52.2
2019-06-19 00:53:37 EDT: N7QME-2>N7QME: temps 68.6 69.5 61.4 69.0 66.5 65.9 69.1 65.9
2019-06-19 00:58:39 EDT: N7QME-2>N7QME: 13.08 66.0 48 17
2019-06-19 01:11:13 EDT: N7QME-2>N7QME: hum 54 52 59 52 61 63 57 62
2019-06-19 01:30:48 EDT: N7QME-2>N7QME: dew 51.3 51.4 45.9 51.4 52.4 52.1 52.7 52.1
2019-06-19 01:50:12 EDT: N7QME-2>N7QME: temps 67.5 68.3 59.3 68.6 66.4 65.8 67.8 65.8
2019-06-19 02:06:53 EDT: N7QME-2>N7QME: hum 54 52 63 51 61 62 57 62
2019-06-19 02:25:23 EDT: N7QME-2>N7QME: dew 50.4 50.3 45.0 50.7 52.3 51.6 51.7 52.0
2019-06-19 02:37:08 EDT: N7QME-2>N7QME: 13.03 63.0 50 17
2019-06-19 02:41:38 EDT: N7QME-2>N7QME: 13.05 63.0 50 17
2019-06-19 02:43:38 EDT: N7QME-2>N7QME: temps 66.6 67.1 57.8 68.1 66.2 65.5 66.8 65.6
2019-06-19 03:01:32 EDT: N7QME-2>N7QME: hum 54 52 65 51 61 61 57 62
2019-06-19 03:18:37 EDT: N7QME-2>N7QME: dew 49.9 49.2 45.0 50.2 52.1 51.3 50.8 51.5
2019-06-19 03:38:27 EDT: N7QME-2>N7QME: temps 65.8 66.2 56.8 67.7 66.1 65.2 66.0 65.4
2019-06-19 03:41:36 EDT: N7QME-2>N7QME: 12.96 61.5 52 18
2019-06-19 03:55:42 EDT: N7QME-2>N7QME: hum 55 53 70 52 61 61 58 61
2019-06-19 04:15:32 EDT: N7QME-2>N7QME: dew 49.2 48.5 45.5 50.2 52.0 50.9 50.4 50.8
2019-06-19 04:34:58 EDT: N7QME-2>N7QME: temps 65.0 65.0 55.3 67.3 65.9 64.8 65.2 65.1
2019-06-19 04:53:42 EDT: N7QME-2>N7QME: hum 55 53 74 52 61 60 58 59
2019-06-19 05:12:22 EDT: N7QME-2>N7QME: dew 48.3 47.4 45.4 49.8 51.8 50.1 49.9 50.1
2019-06-19 05:30:07 EDT: N7QME-2>N7QME: temps 64.3 64.0 54.4 67.0 65.7 64.4 64.5 64.8
2019-06-19 05:42:05 EDT: N7QME-2>N7QME: 12.90 58.6 55 19
2019-06-19 06:23:15 EDT: N7QME-2>N7QME: temps 63.6 63.2 54.4 66.6 65.5 64.0 64.0 64.6
2019-06-19 06:40:43 EDT: N7QME-2>N7QME: hum 55 54 76 52 60 59 59 59
2019-06-19 06:57:18 EDT: N7QME-2>N7QME: dew 47.0 46.1 46.3 49.1 51.0 49.4 48.9 49.3
< previous
FAQ · Blog · Discussion group · Linking to aprs.fi · AIS sites · Service status · Database statistics · Advertising on aprs.fi · Technical details · API · Change log · Planned changes · Credits and thanks · Terms Of Service · iPhone/iPad APRS